Time;durP1;ratioP1;P1;durP2;ratioP2;P2;SDS_P1;SDS_P2;PMS_P1;PMS_P2;Temp;Humidity;BMP_temperature;BMP_pressure;BME280_temperature;BME280_humidity;BME280_pressure;Samples;Min_cycle;Max_cycle;Signal;HPM_P1;HPM_P2
2021/07/15 00:00:38;;;;;;;6.20;1.60;;;17.20;9.80;18.10;99955.00;;;;4930928;29;20492;-81
2021/07/15 00:03:11;;;;;;;2.63;1.43;;;17.30;9.20;18.20;99959.00;;;;4907670;29;20550;-80
2021/07/15 00:05:41;;;;;;;2.30;1.50;;;17.30;9.50;18.20;99965.00;;;;4933448;29;20542;-79
2021/07/15 00:08:13;;;;;;;2.50;2.00;;;17.30;9.40;18.30;99982.00;;;;4895361;29;20482;-81
2021/07/15 00:10:45;;;;;;;1.40;1.20;;;17.30;9.70;18.30;99968.00;;;;4900038;29;20567;-81
2021/07/15 00:13:15;;;;;;;1.50;1.30;;;17.30;10.00;18.20;99979.00;;;;4901931;29;20511;-80
2021/07/15 00:15:47;;;;;;;1.80;1.50;;;17.30;9.60;18.30;99972.00;;;;4898125;29;20470;-81
2021/07/15 00:18:21;;;;;;;3.03;1.47;;;17.30;9.50;18.20;99966.00;;;;4887985;29;20488;-82
2021/07/15 00:20:52;;;;;;;3.93;1.50;;;17.30;9.20;18.20;99964.00;;;;4905079;29;20467;-81
2021/07/15 00:23:21;;;;;;;3.00;1.60;;;17.30;9.30;18.20;99971.00;;;;4904603;29;20463;-82
2021/07/15 00:25:50;;;;;;;3.67;1.60;;;17.30;10.00;18.20;99926.00;;;;4926687;29;20478;-81
2021/07/15 00:28:19;;;;;;;3.30;1.80;;;17.30;9.30;18.20;99958.00;;;;4895573;29;20562;-81
2021/07/15 00:30:48;;;;;;;2.40;1.60;;;17.30;9.00;18.20;99967.00;;;;4927291;29;20479;-80
2021/07/15 00:33:17;;;;;;;2.77;1.53;;;17.30;9.00;18.20;99953.00;;;;4928158;29;20474;-81
2021/07/15 00:35:45;;;;;;;2.60;1.90;;;17.30;9.10;18.10;99976.00;;;;4921805;29;20454;-81
2021/07/15 00:38:16;;;;;;;1.70;1.47;;;17.30;9.30;18.20;99926.00;;;;4925508;29;20506;-79
2021/07/15 00:40:44;;;;;;;3.00;1.53;;;17.30;9.30;18.20;99983.00;;;;4905667;29;20550;-78
2021/07/15 00:43:13;;;;;;;2.70;1.60;;;17.30;9.10;18.20;99981.00;;;;4899693;29;20459;-79
2021/07/15 00:45:41;;;;;;;3.70;1.40;;;17.30;8.80;18.20;99946.00;;;;4896461;29;20475;-80
2021/07/15 00:48:10;;;;;;;1.70;1.27;;;17.30;8.50;18.20;99978.00;;;;4899047;29;20839;-79
2021/07/15 00:50:38;;;;;;;1.50;1.40;;;17.30;8.30;18.20;99987.00;;;;4899288;29;20527;-80
2021/07/15 00:53:08;;;;;;;5.10;1.60;;;17.30;8.40;18.20;99953.00;;;;4903646;29;20466;-80
2021/07/15 00:55:42;;;;;;;2.00;1.30;;;17.40;8.00;18.20;99979.00;;;;4930830;29;20535;-80
2021/07/15 00:58:14;;;;;;;3.90;1.30;;;17.40;8.40;18.30;99943.00;;;;4908231;29;20483;-79
2021/07/15 01:00:46;;;;;;;5.00;1.40;;;17.40;8.10;18.30;99976.00;;;;4929715;29;20531;-79
2021/07/15 01:03:16;;;;;;;1.60;1.40;;;17.40;8.50;18.30;99976.00;;;;4936642;29;20467;-80
2021/07/15 01:05:48;;;;;;;1.87;1.50;;;17.40;8.40;18.30;99991.00;;;;4938620;29;20498;-80
2021/07/15 01:08:18;;;;;;;2.53;1.37;;;17.40;7.90;18.30;100003.00;;;;4933264;29;20985;-80
2021/07/15 01:10:52;;;;;;;2.13;1.20;;;17.40;8.10;18.30;99953.00;;;;4915235;29;20546;-79
2021/07/15 01:13:34;;;;;;;2.37;1.30;;;17.40;8.20;18.30;99990.00;;;;4907328;29;20524;-79
2021/07/15 01:16:14;;;;;;;4.13;1.20;;;17.40;8.00;18.30;100000.00;;;;4900946;29;20487;-80
2021/07/15 01:18:55;;;;;;;1.77;1.43;;;17.40;8.10;18.30;100015.00;;;;4931054;29;20490;-80
2021/07/15 01:22:07;;;;;;;5.43;1.70;;;17.40;7.90;18.30;100010.00;;;;4905741;29;20466;-79
2021/07/15 01:25:30;;;;;;;2.80;1.47;;;17.40;8.10;18.30;100011.00;;;;4913226;29;20465;-79
2021/07/15 01:28:09;;;;;;;2.60;1.37;;;17.40;9.40;18.40;100008.00;;;;4912109;29;20474;-79
2021/07/15 01:30:44;;;;;;;3.07;1.80;;;17.40;10.40;18.30;100007.00;;;;4916263;29;20464;-79
2021/07/15 01:33:18;;;;;;;3.10;1.60;;;17.40;10.10;18.40;100012.00;;;;4928186;29;20562;-79
2021/07/15 01:35:51;;;;;;;1.80;1.30;;;17.40;10.00;18.40;100020.00;;;;4913041;29;20451;-79
2021/07/15 01:38:23;;;;;;;2.80;1.60;;;17.50;9.80;18.30;99994.00;;;;4890569;29;20487;-79
2021/07/15 01:40:58;;;;;;;2.80;1.50;;;17.40;9.10;18.30;100008.00;;;;4928035;29;20498;-79
2021/07/15 01:43:33;;;;;;;2.43;1.53;;;17.40;8.50;18.30;100023.00;;;;4896555;29;20450;-79
2021/07/15 01:46:05;;;;;;;2.60;1.83;;;17.40;8.60;18.40;99977.00;;;;4903277;29;20504;-80
2021/07/15 01:48:34;;;;;;;2.70;1.53;;;17.40;9.00;18.30;99999.00;;;;4903568;29;21059;-79
2021/07/15 01:51:03;;;;;;;1.80;1.50;;;17.40;9.40;18.30;100030.00;;;;4927531;29;21106;-80
2021/07/15 01:53:32;;;;;;;4.40;1.57;;;17.50;10.30;18.30;100007.00;;;;4926564;29;20522;-79
2021/07/15 01:56:01;;;;;;;1.57;1.40;;;17.50;10.30;18.30;100039.00;;;;4929640;29;20559;-79
2021/07/15 01:58:31;;;;;;;2.63;1.70;;;17.50;10.20;18.30;100037.00;;;;4896407;29;20554;-80
2021/07/15 02:01:04;;;;;;;4.00;1.47;;;17.40;10.10;18.30;100034.00;;;;4894701;29;20519;-79
2021/07/15 02:03:34;;;;;;;1.73;1.63;;;17.40;10.10;18.40;99991.00;;;;4886562;29;20455;-79
2021/07/15 02:06:02;;;;;;;3.40;2.13;;;17.50;10.40;18.40;100023.00;;;;4895661;29;20469;-79
2021/07/15 02:08:32;;;;;;;3.73;2.53;;;17.40;10.60;18.40;100035.00;;;;4900922;29;20487;-78
2021/07/15 02:11:01;;;;;;;2.30;2.10;;;17.40;10.20;18.20;100010.00;;;;4891705;29;20482;-79
2021/07/15 02:13:30;;;;;;;2.43;2.23;;;17.30;9.60;18.20;100007.00;;;;4925470;29;20541;-79
2021/07/15 02:16:02;;;;;;;2.50;2.23;;;17.20;10.10;18.10;100030.00;;;;4926253;29;20475;-79
2021/07/15 02:18:31;;;;;;;3.53;3.23;;;17.10;10.40;18.10;100035.00;;;;4903934;29;20475;-79
2021/07/15 02:21:01;;;;;;;3.30;3.00;;;17.10;10.80;18.00;99982.00;;;;4926478;29;20518;-79
2021/07/15 02:23:30;;;;;;;3.20;3.00;;;17.00;11.40;18.00;100012.00;;;;4921571;29;20558;-79
2021/07/15 02:26:00;;;;;;;3.27;2.47;;;17.00;11.60;17.80;100059.00;;;;4923384;29;20483;-79
2021/07/15 02:28:29;;;;;;;2.90;2.70;;;16.90;11.60;17.90;99980.00;;;;4923278;29;21072;-79
2021/07/15 02:31:07;;;;;;;2.90;2.67;;;17.00;12.10;17.90;100049.00;;;;4920785;29;20455;-79
2021/07/15 02:33:40;;;;;;;5.30;2.63;;;17.00;12.60;17.90;100046.00;;;;4901605;29;20523;-79
2021/07/15 02:36:09;;;;;;;6.23;3.83;;;17.00;12.60;17.90;100048.00;;;;4907048;29;20467;-79
2021/07/15 02:38:39;;;;;;;3.83;3.37;;;17.00;12.80;18.00;100042.00;;;;4900954;29;20574;-80
2021/07/15 02:41:07;;;;;;;5.60;3.73;;;17.00;13.00;18.00;99998.00;;;;4926532;29;20482;-80
2021/07/15 02:43:36;;;;;;;5.03;3.80;;;17.10;13.20;18.00;100045.00;;;;4926633;29;20487;-80
2021/07/15 02:46:05;;;;;;;4.43;4.03;;;17.10;13.40;18.00;100045.00;;;;4894763;29;20439;-80
2021/07/15 02:48:34;;;;;;;4.20;3.90;;;17.10;13.20;18.00;100047.00;;;;4891739;29;20490;-79
2021/07/15 02:51:02;;;;;;;4.63;4.23;;;17.10;13.30;18.10;100040.00;;;;4900965;29;20451;-79
2021/07/15 02:53:31;;;;;;;9.87;5.20;;;17.10;13.40;18.10;100026.00;;;;4892122;29;20558;-79
2021/07/15 02:56:12;;;;;;;6.20;4.63;;;17.10;13.80;18.10;99987.00;;;;4923019;29;20490;-80
2021/07/15 02:58:55;;;;;;;7.60;5.40;;;17.10;14.20;18.00;100011.00;;;;4894619;29;20478;-80
2021/07/15 03:01:28;;;;;;;5.23;4.83;;;17.20;14.20;18.00;100012.00;;;;4926889;29;20466;-79
2021/07/15 03:04:04;;;;;;;6.10;5.60;;;17.10;14.00;18.00;100036.00;;;;4892791;29;20835;-80
2021/07/15 03:06:37;;;;;;;6.70;5.70;;;17.20;14.30;18.00;100028.00;;;;4927769;29;20462;-80
2021/07/15 03:09:11;;;;;;;6.17;5.67;;;17.10;14.30;18.00;100004.00;;;;4896880;29;20598;-79
2021/07/15 03:11:45;;;;;;;5.90;5.30;;;17.10;14.40;18.00;100057.00;;;;4897766;29;20454;-79
2021/07/15 03:14:15;;;;;;;4.30;3.80;;;17.10;14.40;18.00;100039.00;;;;4927203;29;20483;-80
2021/07/15 03:16:46;;;;;;;3.97;3.67;;;17.10;14.10;18.00;100050.00;;;;4931861;29;20503;-79
2021/07/15 03:19:17;;;;;;;4.37;3.97;;;17.10;13.70;18.00;100048.00;;;;4908791;29;20459;-79
2021/07/15 03:21:47;;;;;;;4.97;3.97;;;17.10;13.40;18.00;100021.00;;;;4899303;29;20461;-79
2021/07/15 03:24:18;;;;;;;4.67;3.37;;;17.10;13.40;18.00;100009.00;;;;4900648;29;21199;-79
2021/07/15 03:26:48;;;;;;;4.87;3.60;;;17.20;13.50;18.00;100035.00;;;;4932636;29;20467;-79
2021/07/15 03:29:18;;;;;;;3.40;3.10;;;17.20;13.50;18.00;100029.00;;;;4929555;29;20563;-79
2021/07/15 03:31:48;;;;;;;4.30;3.10;;;17.20;13.60;18.00;100031.00;;;;4911709;29;20459;-79
2021/07/15 03:34:18;;;;;;;3.80;3.50;;;17.20;13.50;18.00;100035.00;;;;4938741;29;20538;-79
2021/07/15 03:36:50;;;;;;;4.37;3.97;;;17.20;13.30;18.10;100023.00;;;;4917021;29;20487;-79
2021/07/15 03:39:19;;;;;;;4.97;4.37;;;17.20;13.90;18.10;100035.00;;;;4912729;29;20483;-79
2021/07/15 03:41:49;;;;;;;7.10;3.10;;;17.20;14.40;18.10;100025.00;;;;4947400;29;20463;-80
2021/07/15 03:44:19;;;;;;;3.80;3.13;;;17.20;13.70;18.00;100045.00;;;;4914804;29;20483;-80
2021/07/15 03:46:50;;;;;;;4.70;3.43;;;17.20;13.40;18.00;100016.00;;;;4905181;29;20467;-79
2021/07/15 03:49:21;;;;;;;6.13;2.87;;;17.20;13.40;18.00;100001.00;;;;4911737;29;20468;-79
2021/07/15 03:51:51;;;;;;;3.40;3.10;;;17.20;13.20;18.00;100033.00;;;;4902183;29;20543;-80
2021/07/15 03:54:22;;;;;;;3.27;2.90;;;17.20;13.10;18.00;100052.00;;;;4888099;29;20540;-79
2021/07/15 03:56:52;;;;;;;4.10;3.10;;;17.20;13.40;18.10;100048.00;;;;4930535;29;20455;-79
2021/07/15 03:59:21;;;;;;;4.27;3.87;;;17.30;13.30;18.00;100042.00;;;;4897008;29;20459;-79
2021/07/15 04:02:02;;;;;;;3.83;3.17;;;17.20;13.40;18.10;100045.00;;;;4927905;29;20491;-80
2021/07/15 04:04:33;;;;;;;3.93;2.60;;;17.30;13.20;18.10;99976.00;;;;4896510;29;20473;-80
2021/07/15 04:07:04;;;;;;;2.77;2.30;;;17.30;13.00;18.20;100026.00;;;;4930972;29;20562;-80
2021/07/15 04:09:37;;;;;;;2.80;2.60;;;17.30;12.50;18.10;100034.00;;;;4900884;29;20453;-80
2021/07/15 04:12:08;;;;;;;3.50;3.00;;;17.30;12.20;18.10;100067.00;;;;4896612;29;20497;-80
2021/07/15 04:14:53;;;;;;;2.40;2.20;;;17.30;12.00;18.10;100035.00;;;;4902229;29;20554;-79
2021/07/15 04:17:25;;;;;;;4.40;2.50;;;17.30;11.90;18.10;100027.00;;;;4934051;29;20493;-80
2021/07/15 04:19:59;;;;;;;3.33;2.60;;;17.30;11.80;18.20;100064.00;;;;4922127;29;20470;-79
2021/07/15 04:22:28;;;;;;;3.30;3.10;;;17.30;11.60;18.10;100041.00;;;;4942431;29;20444;-80
2021/07/15 04:24:59;;;;;;;4.10;3.20;;;17.30;11.60;18.20;100030.00;;;;4950254;29;20463;-80
2021/07/15 04:27:28;;;;;;;3.20;3.00;;;17.30;11.20;18.20;100073.00;;;;4909291;29;20506;-80
2021/07/15 04:30:05;;;;;;;4.87;3.17;;;17.40;12.50;18.30;100087.00;;;;4917099;29;20450;-80
2021/07/15 04:32:40;;;;;;;4.10;3.20;;;17.40;12.10;18.30;100053.00;;;;4922825;29;20463;-80
2021/07/15 04:35:12;;;;;;;3.67;3.33;;;17.50;12.20;18.30;100064.00;;;;4910800;29;20475;-80
2021/07/15 04:37:43;;;;;;;3.70;3.20;;;17.50;12.70;18.40;100073.00;;;;4913066;29;20467;-80
2021/07/15 04:40:17;;;;;;;3.37;2.90;;;17.50;12.00;18.40;100064.00;;;;4941919;29;20455;-80
2021/07/15 04:42:48;;;;;;;3.30;2.10;;;17.60;11.00;18.40;100062.00;;;;4925036;29;20459;-80
2021/07/15 04:45:17;;;;;;;3.03;2.30;;;17.60;10.20;18.40;100065.00;;;;4944641;29;20470;-79
2021/07/15 04:47:48;;;;;;;4.63;2.20;;;17.50;10.10;18.50;100068.00;;;;4915820;29;20475;-80
2021/07/15 04:50:19;;;;;;;3.30;2.73;;;17.60;10.40;18.50;100080.00;;;;4914614;29;20455;-80
2021/07/15 04:52:54;;;;;;;4.70;3.17;;;17.60;10.50;18.50;100058.00;;;;4910806;29;20444;-80
2021/07/15 04:55:25;;;;;;;8.93;2.70;;;17.60;10.40;18.60;100092.00;;;;4910967;29;20469;-80
2021/07/15 04:57:55;;;;;;;3.20;2.90;;;17.60;10.50;18.60;100076.00;;;;4921246;29;20491;-80
2021/07/15 05:00:26;;;;;;;3.23;2.67;;;17.70;10.50;18.70;100053.00;;;;4914873;29;20470;-80
2021/07/15 05:03:02;;;;;;;4.03;2.47;;;17.70;10.00;18.70;100066.00;;;;4912974;29;20539;-80
2021/07/15 05:05:30;;;;;;;3.50;2.70;;;17.80;9.80;18.70;100024.00;;;;4921728;29;20487;-79
2021/07/15 05:07:58;;;;;;;2.70;2.03;;;17.80;9.30;18.80;100104.00;;;;4917312;29;20503;-79
2021/07/15 05:10:27;;;;;;;4.10;2.20;;;17.90;9.30;18.90;100096.00;;;;4924244;29;20485;-80
2021/07/15 05:12:56;;;;;;;4.20;1.97;;;18.00;9.10;19.00;100089.00;;;;4914552;29;20468;-79
2021/07/15 05:15:24;;;;;;;1.60;1.30;;;18.00;8.80;19.00;100113.00;;;;4903386;29;20487;-79
2021/07/15 05:17:53;;;;;;;2.90;1.70;;;18.10;8.10;19.10;100086.00;;;;4904032;29;20628;-79
2021/07/15 05:20:23;;;;;;;3.93;1.40;;;18.10;7.40;19.20;100089.00;;;;4897832;29;21345;-79
2021/07/15 05:22:51;;;;;;;2.10;1.60;;;18.10;6.90;19.20;100085.00;;;;4901460;29;20515;-80
2021/07/15 05:25:20;;;;;;;1.47;1.30;;;18.20;7.50;19.30;100089.00;;;;4899672;29;20570;-80
2021/07/15 05:27:48;;;;;;;1.90;1.40;;;18.30;5.60;19.30;100075.00;;;;4901574;29;20551;-80
2021/07/15 05:30:18;;;;;;;3.97;1.50;;;18.30;4.70;19.40;100094.00;;;;4900293;29;20539;-80
2021/07/15 05:32:46;;;;;;;2.60;1.17;;;18.30;3.80;19.40;100097.00;;;;4931429;29;20527;-81
2021/07/15 05:35:15;;;;;;;3.50;1.57;;;18.40;3.50;19.40;100082.00;;;;4930819;29;20587;-81
2021/07/15 05:37:45;;;;;;;2.80;1.30;;;18.50;3.70;19.60;100094.00;;;;4931644;29;20510;-81
2021/07/15 05:40:15;;;;;;;2.23;1.20;;;18.60;2.80;19.70;100065.00;;;;4902232;29;20459;-81
2021/07/15 05:42:43;;;;;;;1.87;1.50;;;18.80;2.20;19.80;100095.00;;;;4928483;29;20586;-80
2021/07/15 05:45:12;;;;;;;3.90;1.30;;;19.00;1.10;20.10;100086.00;;;;4927670;29;20494;-81
2021/07/15 05:47:40;;;;;;;4.00;1.23;;;19.30;1.00;20.20;100105.00;;;;4929829;29;20506;-80
2021/07/15 05:50:10;;;;;;;2.00;1.70;;;19.40;1.00;20.30;100078.00;;;;4936890;29;20475;-80
2021/07/15 05:52:39;;;;;;;2.57;1.30;;;19.40;1.00;20.40;100085.00;;;;4943933;29;20492;-80
2021/07/15 05:55:13;;;;;;;4.17;1.40;;;19.40;1.00;20.30;100086.00;;;;4939630;29;20450;-80
2021/07/15 05:57:42;;;;;;;9.23;2.20;;;19.40;1.00;20.30;100098.00;;;;4905201;29;20475;-80
2021/07/15 06:00:14;;;;;;;5.00;1.63;;;19.50;1.00;20.50;100069.00;;;;4903096;29;20542;-80
2021/07/15 06:02:45;;;;;;;1.97;1.40;;;19.50;1.00;20.60;100103.00;;;;4931444;29;20459;-80
2021/07/15 06:05:28;;;;;;;2.60;1.00;;;19.50;1.00;20.60;100086.00;;;;4936922;29;20467;-81
2021/07/15 06:07:57;;;;;;;2.73;1.10;;;19.50;1.00;20.70;100106.00;;;;4935741;29;20514;-80
2021/07/15 06:10:27;;;;;;;1.70;1.40;;;19.60;1.00;20.80;100077.00;;;;4912403;29;20463;-80
2021/07/15 06:12:56;;;;;;;5.03;1.30;;;19.60;1.00;20.80;100082.00;;;;4941208;29;20509;-80
2021/07/15 06:15:24;;;;;;;2.40;1.17;;;19.60;1.00;20.90;100052.00;;;;4942450;29;20502;-80
2021/07/15 06:17:53;;;;;;;4.40;1.60;;;19.70;1.00;21.20;100088.00;;;;4899326;29;20483;-80
2021/07/15 06:20:22;;;;;;;2.33;1.40;;;19.90;1.00;21.20;100081.00;;;;4898191;29;20463;-80
2021/07/15 06:22:51;;;;;;;3.33;1.40;;;20.10;1.00;21.60;100097.00;;;;4901259;29;20484;-80
2021/07/15 06:25:19;;;;;;;4.80;1.87;;;20.40;1.00;21.90;100099.00;;;;4897747;29;20483;-80
2021/07/15 06:27:49;;;;;;;3.40;1.40;;;20.70;1.00;22.20;100001.00;;;;4900900;29;20478;-80
2021/07/15 06:30:18;;;;;;;7.80;1.57;;;21.20;1.00;22.50;100092.00;;;;4898428;29;20479;-81
2021/07/15 06:32:47;;;;;;;3.33;1.43;;;21.30;1.00;22.70;100077.00;;;;4926770;29;20476;-80
2021/07/15 06:35:18;;;;;;;5.97;1.97;;;21.50;1.00;22.90;100085.00;;;;4895450;29;20931;-80
2021/07/15 06:37:51;;;;;;;2.57;1.47;;;21.70;1.00;23.00;100107.00;;;;4897724;29;20518;-80
2021/07/15 06:40:20;;;;;;;2.90;1.00;;;21.80;1.00;22.80;100055.00;;;;4906053;29;20463;-80
2021/07/15 06:42:50;;;;;;;4.33;1.03;;;21.80;1.00;22.80;100109.00;;;;4899689;29;20494;-80
2021/07/15 06:45:19;;;;;;;2.10;0.97;;;21.60;1.00;23.00;100065.00;;;;4899487;29;20941;-81
2021/07/15 06:47:48;;;;;;;3.30;1.00;;;21.60;1.00;23.00;100068.00;;;;4933103;29;20842;-80
2021/07/15 06:50:19;;;;;;;3.10;1.23;;;21.60;1.00;22.80;100098.00;;;;4931972;29;20527;-80
2021/07/15 06:52:47;;;;;;;1.50;1.10;;;21.50;1.00;22.70;100088.00;;;;4912485;29;20459;-80
2021/07/15 06:55:16;;;;;;;3.43;1.07;;;21.40;1.00;22.70;100079.00;;;;4928760;29;20499;-80
2021/07/15 06:57:45;;;;;;;1.73;0.90;;;21.30;1.00;22.60;100105.00;;;;4930198;29;20566;-80
2021/07/15 07:00:17;;;;;;;4.80;1.03;;;21.10;1.00;22.40;100081.00;;;;4933795;29;20495;-80
2021/07/15 07:02:48;;;;;;;2.67;1.70;;;21.10;1.00;22.90;100079.00;;;;4932906;29;20451;-81
2021/07/15 07:05:18;;;;;;;2.90;1.10;;;21.60;1.00;23.40;100076.00;;;;4912157;29;20454;-79
2021/07/15 07:07:47;;;;;;;2.60;0.87;;;22.10;1.00;23.70;99972.00;;;;4909788;29;20479;-79
2021/07/15 07:10:18;;;;;;;2.43;0.93;;;22.50;1.00;24.20;100083.00;;;;4932539;29;20459;-79
2021/07/15 07:12:48;;;;;;;2.43;0.93;;;22.80;1.00;24.50;100095.00;;;;4934665;29;20463;-79
2021/07/15 07:15:19;;;;;;;3.93;1.37;;;23.00;1.00;24.40;100104.00;;;;4901944;29;20603;-79
2021/07/15 07:17:48;;;;;;;2.80;0.97;;;22.90;1.00;24.00;100121.00;;;;4928652;29;20487;-79
2021/07/15 07:20:17;;;;;;;3.20;1.80;;;22.60;1.00;23.90;100129.00;;;;4900050;29;20483;-79
2021/07/15 07:22:47;;;;;;;2.30;0.93;;;22.40;1.00;23.70;100146.00;;;;4930288;29;21017;-79
2021/07/15 07:25:16;;;;;;;1.10;0.70;;;22.20;1.00;23.40;100122.00;;;;4931208;29;20496;-79
2021/07/15 07:27:46;;;;;;;2.43;1.20;;;22.00;1.00;23.30;100106.00;;;;4899554;29;20471;-79
2021/07/15 07:30:19;;;;;;;3.07;1.13;;;21.90;1.00;23.60;100077.00;;;;4937961;29;20455;-80
2021/07/15 07:32:48;;;;;;;2.67;2.47;;;22.20;1.00;23.80;100130.00;;;;4904768;29;20455;-81
2021/07/15 07:35:17;;;;;;;1.60;1.17;;;22.50;1.00;23.80;100039.00;;;;4912445;29;20479;-81
2021/07/15 07:37:47;;;;;;;1.77;0.80;;;22.60;1.00;23.70;100121.00;;;;4899600;29;20467;-79
2021/07/15 07:40:17;;;;;;;1.60;0.80;;;22.50;1.00;23.70;100142.00;;;;4906811;29;20507;-79
2021/07/15 07:42:47;;;;;;;1.80;0.90;;;22.50;1.00;23.90;100158.00;;;;4904063;29;20436;-80
2021/07/15 07:45:18;;;;;;;3.77;2.40;;;22.50;1.00;23.90;100138.00;;;;4904653;29;20482;-80
2021/07/15 07:47:46;;;;;;;1.83;1.07;;;22.40;1.00;24.00;100150.00;;;;4909049;29;20506;-81
2021/07/15 07:50:16;;;;;;;4.67;1.13;;;22.50;1.00;23.90;100125.00;;;;4908429;29;20479;-81
2021/07/15 07:52:44;;;;;;;1.80;1.13;;;22.40;1.00;23.90;100093.00;;;;4932460;29;20554;-79
2021/07/15 07:55:14;;;;;;;4.73;1.47;;;22.40;1.00;23.90;100165.00;;;;4901495;29;20511;-80
2021/07/15 07:57:43;;;;;;;2.90;1.50;;;22.40;1.00;23.90;100160.00;;;;4936283;29;20483;-80
2021/07/15 08:00:15;;;;;;;2.80;1.10;;;22.40;1.00;24.00;100153.00;;;;4935748;29;20558;-80
2021/07/15 08:02:47;;;;;;;2.13;1.00;;;22.40;1.00;24.20;100153.00;;;;4920836;29;20468;-81
2021/07/15 08:05:20;;;;;;;3.00;1.80;;;22.60;1.00;24.40;100153.00;;;;4921593;29;20451;-80
2021/07/15 08:07:49;;;;;;;2.80;1.00;;;22.80;1.00;24.50;100147.00;;;;4917010;29;20475;-80
2021/07/15 08:10:19;;;;;;;1.60;0.83;;;22.90;1.00;24.70;100130.00;;;;4914800;29;20523;-80
2021/07/15 08:12:51;;;;;;;2.17;0.80;;;23.00;1.00;24.70;100106.00;;;;4911767;29;20451;-80
2021/07/15 08:15:20;;;;;;;1.10;0.70;;;23.00;1.00;24.50;100184.00;;;;4902962;29;20478;-80
2021/07/15 08:17:49;;;;;;;1.70;0.87;;;22.90;1.00;24.40;100138.00;;;;4906752;29;20522;-80
2021/07/15 08:20:18;;;;;;;3.93;0.97;;;22.70;1.00;24.40;100164.00;;;;4936938;29;20558;-80
2021/07/15 08:22:47;;;;;;;1.60;0.77;;;22.70;1.00;24.50;100104.00;;;;4936926;29;20539;-80
2021/07/15 08:25:19;;;;;;;2.03;1.23;;;22.80;1.00;24.60;100097.00;;;;4916323;29;20968;-79
2021/07/15 08:27:48;;;;;;;1.60;0.93;;;22.90;1.00;24.70;100183.00;;;;4906234;29;20475;-80
2021/07/15 08:30:19;;;;;;;1.97;0.90;;;22.90;1.00;24.70;100181.00;;;;4899318;29;20477;-80
2021/07/15 08:32:49;;;;;;;1.63;0.70;;;22.90;1.00;24.70;100178.00;;;;4928682;29;20459;-80
2021/07/15 08:35:26;;;;;;;1.57;0.80;;;22.80;1.00;24.60;100173.00;;;;4898694;29;20582;-79
2021/07/15 08:37:56;;;;;;;4.20;0.90;;;22.90;1.00;24.60;100165.00;;;;4895997;29;20905;-79
2021/07/15 08:40:25;;;;;;;1.53;0.90;;;22.90;1.00;24.80;100153.00;;;;4904737;29;20900;-80
2021/07/15 08:42:55;;;;;;;2.60;0.90;;;23.10;1.00;25.00;100165.00;;;;4898554;29;20503;-79
2021/07/15 08:45:23;;;;;;;1.20;0.67;;;23.30;1.00;25.30;100182.00;;;;4906237;29;20482;-79
2021/07/15 08:47:57;;;;;;;2.67;1.00;;;23.50;1.00;25.50;100162.00;;;;4929144;29;20475;-80
2021/07/15 08:50:25;;;;;;;1.10;0.60;;;23.70;1.00;25.20;100130.00;;;;4906368;29;20502;-80
2021/07/15 08:52:54;;;;;;;1.93;0.97;;;23.50;1.00;25.00;100178.00;;;;4898765;29;20454;-79
2021/07/15 08:58:11;;;;;;;3.10;0.80;;;23.30;1.00;25.60;100135.00;;;;4928083;29;20479;-79
2021/07/15 09:00:41;;;;;;;3.00;0.90;;;24.00;1.00;26.10;100160.00;;;;4900032;29;20459;-80
2021/07/15 09:03:12;;;;;;;1.33;0.70;;;24.50;1.00;26.50;100165.00;;;;4925836;29;20469;-79
2021/07/15 09:05:43;;;;;;;1.47;0.80;;;24.90;1.00;26.50;100158.00;;;;4899770;29;20535;-79
2021/07/15 09:08:14;;;;;;;2.03;0.80;;;24.90;1.00;26.60;100173.00;;;;4905438;29;20506;-79
2021/07/15 09:10:43;;;;;;;2.10;0.80;;;24.90;1.00;26.30;100149.00;;;;4896367;29;20483;-79
2021/07/15 09:13:12;;;;;;;2.23;0.73;;;24.70;1.00;25.80;100178.00;;;;4896490;29;20810;-79
2021/07/15 09:15:48;;;;;;;2.13;1.00;;;24.30;1.00;25.50;100141.00;;;;4895879;29;20557;-79
2021/07/15 09:18:19;;;;;;;2.67;1.03;;;24.20;1.00;25.00;100172.00;;;;4900015;29;21091;-80
2021/07/15 09:20:48;;;;;;;2.27;1.10;;;23.90;1.00;24.40;100186.00;;;;4908167;29;20463;-84
2021/07/15 09:23:18;;;;;;;2.90;0.90;;;23.50;1.00;24.00;100156.00;;;;4894401;29;20474;-83
2021/07/15 09:26:00;;;;;;;2.80;0.70;;;23.20;1.00;24.00;100170.00;;;;4896181;29;20985;-84
2021/07/15 09:28:32;;;;;;;3.73;1.10;;;23.10;1.00;24.10;100185.00;;;;4927245;29;20487;-83
2021/07/15 09:31:17;;;;;;;2.20;1.20;;;23.30;1.00;24.10;100172.00;;;;4928903;29;20764;-85
2021/07/15 09:33:48;;;;;;;3.07;1.10;;;23.30;1.00;24.30;100108.00;;;;4897129;29;20463;-86
2021/07/15 09:36:21;;;;;;;2.33;1.07;;;23.50;1.00;24.60;100195.00;;;;4908551;29;20479;-85
2021/07/15 09:38:50;;;;;;;3.00;1.30;;;23.60;1.00;24.90;100200.00;;;;4909335;29;20511;-80
2021/07/15 09:41:20;;;;;;;1.60;0.87;;;23.80;1.00;24.90;100206.00;;;;4912620;29;20534;-80
2021/07/15 09:43:49;;;;;;;1.33;0.80;;;23.70;1.00;25.10;100147.00;;;;4902934;29;20491;-81
2021/07/15 09:46:22;;;;;;;2.03;0.90;;;23.60;1.00;25.20;100208.00;;;;4934318;29;20459;-80
2021/07/15 09:49:06;;;;;;;12.20;2.03;;;23.60;1.00;25.40;100188.00;;;;4904848;29;20488;-80
2021/07/15 09:51:40;;;;;;;4.90;1.40;;;23.50;1.00;25.40;100221.00;;;;4904973;29;20445;-79
2021/07/15 09:54:10;;;;;;;2.67;0.80;;;23.50;1.00;25.20;100207.00;;;;4908884;29;20454;-80
2021/07/15 09:56:45;;;;;;;2.60;0.80;;;23.50;1.00;25.30;100196.00;;;;4934212;29;20467;-79
2021/07/15 09:59:14;;;;;;;2.87;1.50;;;23.60;1.00;25.20;100204.00;;;;4908354;29;20459;-80
2021/07/15 10:01:47;;;;;;;2.77;1.20;;;23.70;1.00;25.40;100196.00;;;;4910228;29;20459;-80
2021/07/15 10:04:28;;;;;;;3.90;1.23;;;23.90;1.00;25.70;100187.00;;;;4908350;29;20462;-80
2021/07/15 10:06:58;;;;;;;5.30;1.20;;;24.00;1.00;25.80;100181.00;;;;4943239;29;20479;-80
2021/07/15 10:09:28;;;;;;;6.80;1.27;;;24.10;1.00;26.10;100150.00;;;;4944942;29;20491;-80
2021/07/15 10:11:58;;;;;;;6.80;4.83;;;24.40;1.00;26.30;100167.00;;;;4947828;29;20467;-81
2021/07/15 10:14:40;;;;;;;3.53;0.97;;;24.50;1.00;26.40;100134.00;;;;4924145;29;20500;-80
2021/07/15 10:17:09;;;;;;;4.90;1.30;;;24.70;1.00;26.60;100173.00;;;;4917133;29;20562;-80
2021/07/15 10:19:39;;;;;;;1.50;0.80;;;24.70;1.00;26.70;100190.00;;;;4920748;29;20471;-81
2021/07/15 10:22:10;;;;;;;2.07;1.17;;;25.00;1.00;26.70;100162.00;;;;4913323;29;20458;-81
2021/07/15 10:24:40;;;;;;;2.83;0.90;;;25.10;1.00;26.70;100196.00;;;;4922354;29;20498;-81
2021/07/15 10:27:11;;;;;;;1.30;0.80;;;25.20;1.00;26.60;100136.00;;;;4919542;29;20487;-81
2021/07/15 10:29:41;;;;;;;3.70;1.00;;;25.30;1.00;26.70;100186.00;;;;4903400;29;20534;-80
2021/07/15 10:32:12;;;;;;;1.17;0.80;;;25.30;1.00;26.90;100179.00;;;;4908679;29;20482;-81
2021/07/15 10:34:44;;;;;;;2.40;0.67;;;25.30;1.00;27.00;100193.00;;;;4904289;29;20626;-81
2021/07/15 10:37:13;;;;;;;1.93;0.90;;;25.50;1.00;27.00;100187.00;;;;4902762;29;20497;-81
2021/07/15 10:39:42;;;;;;;9.37;2.27;;;25.50;1.00;27.10;100155.00;;;;4903015;29;20489;-80
2021/07/15 10:42:11;;;;;;;5.43;1.40;;;25.40;1.00;27.10;100207.00;;;;4910717;29;20566;-81
2021/07/15 10:44:41;;;;;;;3.70;0.93;;;25.50;1.00;27.10;100217.00;;;;4900832;29;20526;-81
2021/07/15 10:47:14;;;;;;;3.87;1.00;;;25.50;1.00;27.30;100158.00;;;;4923928;29;20487;-82
2021/07/15 10:49:46;;;;;;;4.00;1.20;;;25.60;1.00;27.30;100221.00;;;;4899746;29;20451;-82
2021/07/15 10:52:19;;;;;;;1.80;0.80;;;25.50;1.00;27.30;100170.00;;;;4907983;29;20586;-82
2021/07/15 10:54:50;;;;;;;3.00;1.00;;;25.50;1.00;27.30;100208.00;;;;4901097;29;20482;-82
2021/07/15 10:57:21;;;;;;;2.13;0.87;;;25.40;1.00;27.00;100182.00;;;;4893048;29;20506;-81
2021/07/15 10:59:50;;;;;;;5.50;1.20;;;25.20;1.00;26.90;100206.00;;;;4893532;29;20527;-80
2021/07/15 11:02:22;;;;;;;2.20;0.80;;;25.10;1.00;26.60;100235.00;;;;4907302;29;20451;-81
2021/07/15 11:04:54;;;;;;;4.90;1.47;;;25.00;1.00;26.50;100228.00;;;;4909935;29;20455;-81
2021/07/15 11:07:28;;;;;;;2.87;1.13;;;25.00;1.00;26.70;100229.00;;;;4901535;29;20479;-81
2021/07/15 11:10:16;;;;;;;1.80;0.80;;;25.20;1.00;26.90;100213.00;;;;4908363;29;20466;-81
2021/07/15 11:12:56;;;;;;;3.33;1.10;;;25.50;1.00;27.10;100203.00;;;;4935323;29;20538;-81